createdAt,value
2022-10-30T00:02:03.555Z,73.60
2022-10-30T00:04:32.158Z,73.80
2022-10-30T00:07:06.633Z,73.55
2022-10-30T00:09:35.585Z,73.09
2022-10-30T00:12:03.774Z,73.67
2022-10-30T00:14:34.429Z,73.46
2022-10-30T00:17:04.180Z,72.77
2022-10-30T00:19:35.101Z,73.40
2022-10-30T00:24:35.419Z,73.41
2022-10-30T00:27:08.900Z,73.39
2022-10-30T00:29:37.536Z,73.36
2022-10-30T00:32:18.786Z,73.41
2022-10-30T00:34:52.575Z,73.44
2022-10-30T00:37:20.523Z,73.07
2022-10-30T00:39:49.158Z,73.24
2022-10-30T00:42:31.138Z,72.62
2022-10-30T00:45:01.338Z,73.00
2022-10-30T00:47:37.957Z,72.64
2022-10-30T00:50:15.695Z,73.08
2022-10-30T00:52:52.786Z,73.06
2022-10-30T00:55:32.625Z,73.09
2022-10-30T00:58:46.627Z,73.39
2022-10-30T01:01:22.281Z,73.59
2022-10-30T01:04:37.156Z,73.62
2022-10-30T01:07:25.757Z,73.67
2022-10-30T01:10:02.411Z,73.75
2022-10-30T01:12:30.799Z,73.68
2022-10-30T01:15:15.715Z,73.27
2022-10-30T01:18:15.142Z,72.86
2022-10-30T01:21:29.539Z,73.45
2022-10-30T01:24:14.853Z,72.78
2022-10-30T01:26:57.675Z,72.98
2022-10-30T01:29:53.333Z,72.84
2022-10-30T01:32:39.090Z,72.87
2022-10-30T01:35:11.709Z,72.82
2022-10-30T01:38:13.422Z,73.15
2022-10-30T01:40:59.155Z,72.89
2022-10-30T01:43:38.348Z,73.31
2022-10-30T01:46:25.280Z,73.36
2022-10-30T01:49:42.564Z,73.36
2022-10-30T01:52:27.140Z,73.27
2022-10-30T01:59:55.433Z,73.32
2022-10-30T02:02:24.144Z,73.27
2022-10-30T02:04:54.410Z,72.95
2022-10-30T02:07:22.744Z,73.68
2022-10-30T02:09:57.390Z,73.41
2022-10-30T02:12:48.462Z,73.54
2022-10-30T02:15:53.198Z,73.36
2022-10-30T02:18:21.129Z,73.53
2022-10-30T02:20:50.498Z,73.83
2022-10-30T02:23:18.947Z,73.47
2022-10-30T02:26:01.918Z,73.72
2022-10-30T02:28:49.351Z,73.87
2022-10-30T02:31:27.049Z,73.82
2022-10-30T02:44:45.059Z,73.29
2022-10-30T02:47:17.280Z,73.10
2022-10-30T02:49:47.819Z,73.63
2022-10-30T02:52:21.063Z,73.74
2022-10-30T02:54:50.025Z,73.91
2022-10-30T03:34:36.537Z,74.63
2022-10-30T03:45:11.748Z,75.36
2022-10-30T03:47:41.065Z,75.38
2022-10-30T03:50:25.409Z,75.40
2022-10-30T03:53:13.738Z,75.66
2022-10-30T03:55:43.476Z,75.43
2022-10-30T03:58:13.679Z,75.43
2022-10-30T04:00:49.323Z,75.54
2022-10-30T04:03:21.127Z,75.27
2022-10-30T04:06:09.986Z,75.17
2022-10-30T04:08:40.054Z,75.47
2022-10-30T04:11:12.384Z,75.25
2022-10-30T04:13:41.476Z,75.86
2022-10-30T04:16:13.835Z,75.16
2022-10-30T04:18:42.966Z,75.03
2022-10-30T04:21:47.770Z,75.41
2022-10-30T04:24:21.667Z,75.75
2022-10-30T04:30:09.313Z,75.60
2022-10-30T04:33:45.301Z,75.68
2022-10-30T04:51:27.981Z,75.69
2022-10-30T04:54:25.590Z,76.00
2022-10-30T04:57:15.871Z,75.51
2022-10-30T05:03:52.093Z,75.47
2022-10-30T05:06:52.074Z,75.66
2022-10-30T05:10:28.160Z,75.75
2022-10-30T05:14:40.257Z,75.66
2022-10-30T05:32:44.569Z,75.72
2022-10-30T05:35:41.638Z,76.09
2022-10-30T05:38:54.411Z,75.93
2022-10-30T05:45:39.005Z,76.11
2022-10-30T05:48:33.424Z,76.03
2022-10-30T05:51:40.618Z,76.22
2022-10-30T05:54:55.939Z,76.40
2022-10-30T05:58:02.488Z,76.09
2022-10-30T06:00:47.233Z,76.52
2022-10-30T06:03:21.570Z,76.56
2022-10-30T06:05:55.567Z,76.29
2022-10-30T06:08:27.141Z,76.03
2022-10-30T06:10:58.415Z,76.59
2022-10-30T06:13:41.795Z,75.75
2022-10-30T06:16:12.790Z,76.03
2022-10-30T06:18:59.447Z,76.29
2022-10-30T06:21:31.263Z,76.19
2022-10-30T06:24:35.459Z,76.11
2022-10-30T06:27:24.762Z,76.49
2022-10-30T06:29:54.837Z,76.01
2022-10-30T06:32:23.698Z,76.28
2022-10-30T06:34:53.111Z,76.07
2022-10-30T06:37:28.404Z,76.34
2022-10-30T06:39:56.948Z,76.15
2022-10-30T06:42:45.980Z,75.77
2022-10-30T06:45:46.484Z,75.75
2022-10-30T06:48:14.465Z,76.00
2022-10-30T06:50:47.870Z,76.06
2022-10-30T06:53:17.526Z,76.09
2022-10-30T06:55:45.635Z,75.52
2022-10-30T06:58:39.132Z,75.67
2022-10-30T07:01:13.641Z,75.47
2022-10-30T07:04:05.931Z,74.92
2022-10-30T07:06:35.451Z,74.94
2022-10-30T07:20:13.987Z,65.87
2022-10-30T07:22:41.862Z,61.22
2022-10-30T07:25:12.287Z,58.40
2022-10-30T07:27:58.732Z,56.06
2022-10-30T07:30:36.707Z,53.72
2022-10-30T07:33:30.929Z,51.44
2022-10-30T07:36:15.421Z,48.29
2022-10-30T07:46:10.893Z,44.13
2022-10-30T07:49:08.221Z,40.82
2022-10-30T07:51:50.136Z,39.60
2022-10-30T07:54:19.163Z,39.05
2022-10-30T07:56:48.489Z,38.51
2022-10-30T07:59:38.055Z,37.56
2022-10-30T08:02:21.633Z,35.33
2022-10-30T08:05:14.106Z,34.59
2022-10-30T08:08:00.862Z,33.70
2022-10-30T08:10:29.576Z,32.47
2022-10-30T08:12:58.115Z,32.01
2022-10-30T08:15:27.679Z,31.24
2022-10-30T08:17:56.568Z,30.61
2022-10-30T08:20:25.832Z,29.70
2022-10-30T08:22:56.946Z,29.17
2022-10-30T08:25:34.683Z,28.93
2022-10-30T08:28:20.561Z,29.15
2022-10-30T08:31:16.756Z,27.65
2022-10-30T08:35:03.158Z,27.27
2022-10-30T09:05:21.902Z,24.92
2022-10-30T09:08:08.555Z,24.93
2022-10-30T09:10:59.585Z,24.83
2022-10-30T09:13:27.976Z,26.42
2022-10-30T09:16:01.121Z,26.90
2022-10-30T09:18:32.062Z,26.57
2022-10-30T09:21:04.701Z,26.99
2022-10-30T09:23:48.096Z,27.83
2022-10-30T09:26:39.996Z,28.98
2022-10-30T09:29:15.093Z,30.45
2022-10-30T09:32:02.220Z,30.61
2022-10-30T09:34:33.903Z,31.93
2022-10-30T09:37:16.553Z,31.20
2022-10-30T09:39:47.364Z,32.25
2022-10-30T09:42:48.833Z,32.85
2022-10-30T09:45:53.237Z,32.56
2022-10-30T09:48:49.087Z,31.82
2022-10-30T09:54:53.485Z,30.67
2022-10-30T09:57:32.007Z,30.69
2022-10-30T10:00:10.318Z,30.99
2022-10-30T10:02:57.926Z,31.50
2022-10-30T10:05:42.253Z,30.35
2022-10-30T10:08:37.797Z,32.11
2022-10-30T10:11:28.514Z,31.45
2022-10-30T10:14:01.681Z,30.56
2022-10-30T10:16:31.969Z,30.77
2022-10-30T10:19:05.204Z,30.34
2022-10-30T10:21:36.853Z,28.04
2022-10-30T10:24:19.764Z,29.27
2022-10-30T10:26:50.607Z,28.91
2022-10-30T10:29:38.505Z,27.88
2022-10-30T10:32:20.814Z,25.44
2022-10-30T10:35:07.190Z,22.91
2022-10-30T10:37:43.870Z,23.16
2022-10-30T10:40:29.334Z,23.25
2022-10-30T10:43:09.862Z,22.58
2022-10-30T10:45:44.935Z,21.69
2022-10-30T10:48:38.195Z,22.42
2022-10-30T10:51:10.381Z,21.57
2022-10-30T10:53:45.692Z,19.57
2022-10-30T10:56:15.150Z,19.50
2022-10-30T10:58:50.615Z,18.30
2022-10-30T11:01:22.716Z,18.52
2022-10-30T11:03:57.387Z,18.42
2022-10-30T11:06:28.804Z,17.80
2022-10-30T11:09:13.221Z,18.04
2022-10-30T11:11:42.534Z,17.46
2022-10-30T11:14:15.276Z,16.24
2022-10-30T11:16:54.848Z,17.19
2022-10-30T11:19:24.839Z,15.90
2022-10-30T11:21:56.280Z,16.82
2022-10-30T11:24:30.117Z,18.21
2022-10-30T11:27:17.321Z,18.20
2022-10-30T11:29:53.301Z,18.38
2022-10-30T11:32:22.904Z,17.26
2022-10-30T11:35:02.708Z,18.48
2022-10-30T11:37:32.503Z,18.54
2022-10-30T11:40:04.298Z,18.02
2022-10-30T11:42:34.182Z,19.68
2022-10-30T11:45:02.220Z,21.22
2022-10-30T11:50:17.495Z,22.52
2022-10-30T11:52:51.392Z,23.25
2022-10-30T11:55:21.758Z,23.55
2022-10-30T11:57:53.470Z,24.52
2022-10-30T12:00:24.832Z,25.53
2022-10-30T12:03:07.002Z,25.19
2022-10-30T12:05:42.425Z,25.22
2022-10-30T12:08:23.032Z,25.31
2022-10-30T12:11:05.342Z,23.52
2022-10-30T12:13:50.824Z,23.31
2022-10-30T12:16:32.386Z,24.19
2022-10-30T12:19:07.188Z,24.24
2022-10-30T12:21:51.292Z,22.76
2022-10-30T12:24:51.807Z,22.25
2022-10-30T12:27:23.580Z,21.97
2022-10-30T12:30:14.092Z,21.48
2022-10-30T12:33:07.312Z,21.83
2022-10-30T12:35:48.135Z,24.34
2022-10-30T12:38:29.026Z,24.82
2022-10-30T12:41:19.247Z,23.91
2022-10-30T12:43:53.463Z,24.59
2022-10-30T12:46:33.424Z,25.67
2022-10-30T12:49:10.595Z,27.32
2022-10-30T12:51:50.849Z,29.16
2022-10-30T12:54:26.749Z,29.07
2022-10-30T12:57:04.940Z,31.54
2022-10-30T12:59:40.580Z,32.54
2022-10-30T13:02:22.860Z,34.45
2022-10-30T13:04:57.780Z,37.07
2022-10-30T13:07:31.294Z,37.72
2022-10-30T13:10:13.834Z,39.16
2022-10-30T13:12:45.180Z,40.00
2022-10-30T13:15:22.270Z,39.79
2022-10-30T13:17:52.257Z,40.74
2022-10-30T13:20:21.346Z,41.37
2022-10-30T13:22:55.385Z,42.07
2022-10-30T13:25:28.657Z,40.98
2022-10-30T13:28:02.579Z,40.99
2022-10-30T13:30:35.247Z,42.04
2022-10-30T13:33:12.585Z,42.38
2022-10-30T13:35:47.048Z,43.03
2022-10-30T13:38:35.792Z,42.84
2022-10-30T13:41:11.062Z,43.61
2022-10-30T13:43:50.092Z,43.37
2022-10-30T13:46:28.290Z,44.65
2022-10-30T13:49:13.639Z,44.31
2022-10-30T13:51:45.165Z,44.75
2022-10-30T13:54:20.915Z,45.12
2022-10-30T13:56:50.040Z,45.56
2022-10-30T13:59:41.077Z,44.93
2022-10-30T14:02:23.456Z,46.12
2022-10-30T14:04:58.864Z,45.68
2022-10-30T14:07:34.561Z,46.09
2022-10-30T14:10:08.647Z,46.71
2022-10-30T14:12:50.481Z,47.83
2022-10-30T14:15:27.240Z,48.43
2022-10-30T14:18:27.146Z,48.15
2022-10-30T14:20:58.058Z,49.10
2022-10-30T14:23:29.714Z,49.78
2022-10-30T14:26:21.447Z,49.85
2022-10-30T14:28:50.841Z,51.26
2022-10-30T14:31:20.045Z,50.38
2022-10-30T14:33:50.428Z,50.99
2022-10-30T14:36:24.551Z,51.00
2022-10-30T14:39:00.299Z,51.59
2022-10-30T14:41:48.761Z,51.87
2022-10-30T14:44:26.141Z,52.24
2022-10-30T14:47:20.800Z,52.61
2022-10-30T14:49:51.582Z,53.21
2022-10-30T14:52:31.222Z,52.84
2022-10-30T14:55:23.179Z,53.21
2022-10-30T14:57:54.201Z,53.39
2022-10-30T15:00:39.643Z,53.46
2022-10-30T15:03:18.352Z,53.79
2022-10-30T15:05:55.888Z,54.29
2022-10-30T15:08:54.058Z,54.79
2022-10-30T15:14:39.948Z,56.08
2022-10-30T15:17:42.246Z,54.27
2022-10-30T15:20:41.299Z,55.89
2022-10-30T15:23:16.740Z,57.08
2022-10-30T15:25:48.696Z,57.79
2022-10-30T15:28:22.616Z,57.87
2022-10-30T15:35:37.177Z,58.72
2022-10-30T15:38:07.235Z,59.13
2022-10-30T15:40:38.435Z,59.54
2022-10-30T15:54:51.730Z,60.50
2022-10-30T16:44:27.400Z,64.69
2022-10-30T16:52:59.241Z,65.27
2022-10-30T16:55:30.983Z,65.64
2022-10-30T16:58:02.889Z,66.56
2022-10-30T17:00:36.784Z,66.27
2022-10-30T17:03:10.715Z,66.29
2022-10-30T17:05:41.279Z,66.59
2022-10-30T17:08:36.959Z,66.44
2022-10-30T17:11:17.160Z,66.90
2022-10-30T17:14:02.268Z,66.77
2022-10-30T17:16:32.334Z,66.30
2022-10-30T17:19:02.168Z,66.74
2022-10-30T17:21:39.169Z,66.75
2022-10-30T17:24:20.912Z,66.90
2022-10-30T17:26:57.668Z,66.73
2022-10-30T17:29:45.824Z,66.57
2022-10-30T17:32:21.146Z,67.01
2022-10-30T17:34:49.907Z,67.17
2022-10-30T17:37:18.810Z,67.66
2022-10-30T17:39:46.885Z,67.57
2022-10-30T17:42:16.626Z,67.69
2022-10-30T17:44:46.577Z,67.84
2022-10-30T17:47:17.514Z,68.13
2022-10-30T17:49:49.601Z,68.31
2022-10-30T17:52:20.998Z,68.30
2022-10-30T17:54:49.268Z,68.55
2022-10-30T17:57:23.036Z,68.55
2022-10-30T17:59:59.193Z,68.88
2022-10-30T18:02:27.603Z,68.97
2022-10-30T18:05:15.143Z,68.50
2022-10-30T18:07:47.605Z,69.20
2022-10-30T18:10:16.548Z,69.16
2022-10-30T18:12:46.628Z,69.30
2022-10-30T18:19:28.199Z,69.13
2022-10-30T18:21:58.192Z,69.52
2022-10-30T18:24:29.584Z,69.75
2022-10-30T18:26:58.598Z,69.57
2022-10-30T18:29:30.004Z,69.37
2022-10-30T18:31:58.514Z,69.51
2022-10-30T18:34:26.672Z,69.45
2022-10-30T18:36:55.093Z,69.36
2022-10-30T18:39:24.227Z,69.56
2022-10-30T18:42:16.324Z,69.37
2022-10-30T18:44:48.116Z,69.75
2022-10-30T18:47:21.746Z,70.09
2022-10-30T18:50:43.344Z,69.76
2022-10-30T18:56:44.384Z,70.40
2022-10-30T18:59:12.404Z,70.34
2022-10-30T19:01:40.726Z,70.31
2022-10-30T19:04:10.446Z,70.35
2022-10-30T19:06:38.962Z,70.76
2022-10-30T19:09:07.697Z,70.61
2022-10-30T19:11:38.373Z,71.00
2022-10-30T19:14:13.406Z,71.04
2022-10-30T19:16:41.623Z,71.23
2022-10-30T19:19:09.556Z,70.99
2022-10-30T19:21:37.643Z,70.90
2022-10-30T19:24:13.056Z,71.11
2022-10-30T19:26:41.100Z,71.21
2022-10-30T19:29:09.071Z,71.11
2022-10-30T19:31:38.367Z,71.26
2022-10-30T19:34:06.371Z,71.28
2022-10-30T19:36:36.902Z,71.55
2022-10-30T19:39:11.126Z,71.60
2022-10-30T19:41:39.979Z,71.53
2022-10-30T19:44:08.089Z,71.29
2022-10-30T19:46:36.647Z,71.76
2022-10-30T19:49:16.985Z,71.59
2022-10-30T19:51:44.956Z,71.60
2022-10-30T19:54:13.075Z,72.01
2022-10-30T19:56:42.996Z,71.93
2022-10-30T19:59:12.693Z,72.02
2022-10-30T20:01:41.625Z,72.05
2022-10-30T20:04:11.387Z,72.00
2022-10-30T20:06:39.424Z,71.98
2022-10-30T20:09:10.012Z,72.28
2022-10-30T20:11:38.061Z,72.15
2022-10-30T20:14:06.124Z,72.32
2022-10-30T20:16:34.159Z,72.13
2022-10-30T20:19:02.311Z,72.33
2022-10-30T20:21:32.122Z,72.26
2022-10-30T20:24:00.208Z,72.27
2022-10-30T20:26:30.318Z,72.23
2022-10-30T20:28:59.825Z,72.32
2022-10-30T20:31:27.948Z,72.67
2022-10-30T20:33:55.985Z,72.54
2022-10-30T20:36:23.948Z,72.60
2022-10-30T20:38:53.337Z,72.62
2022-10-30T20:41:23.611Z,72.81
2022-10-30T20:43:51.901Z,72.76
2022-10-30T20:46:20.445Z,73.00
2022-10-30T20:48:48.743Z,73.14
2022-10-30T20:51:16.850Z,72.88
2022-10-30T20:53:44.623Z,73.12
2022-10-30T20:56:13.873Z,73.07
2022-10-30T20:58:43.500Z,72.71
2022-10-30T21:01:11.758Z,73.08
2022-10-30T21:03:39.646Z,73.24
2022-10-30T21:06:09.697Z,72.96
2022-10-30T21:08:37.814Z,72.91
2022-10-30T21:11:07.494Z,72.91
2022-10-30T21:13:37.337Z,73.24
2022-10-30T21:16:07.982Z,72.97
2022-10-30T21:18:36.133Z,72.98
2022-10-30T21:21:07.074Z,72.94
2022-10-30T21:23:35.133Z,72.88
2022-10-30T21:26:04.487Z,73.09
2022-10-30T21:28:32.647Z,72.93
2022-10-30T21:31:03.420Z,73.03
2022-10-30T21:33:31.904Z,72.99
2022-10-30T21:36:10.591Z,73.13
2022-10-30T21:38:41.860Z,73.06
2022-10-30T21:41:10.141Z,72.93
2022-10-30T21:43:38.092Z,73.06
2022-10-30T21:46:08.313Z,73.10
2022-10-30T21:48:36.124Z,73.09
2022-10-30T21:51:11.779Z,73.09
2022-10-30T21:53:40.214Z,73.29
2022-10-30T21:56:09.995Z,73.35
2022-10-30T21:58:38.029Z,73.46
2022-10-30T22:01:07.947Z,73.67
2022-10-30T22:03:35.696Z,73.52
2022-10-30T22:06:08.630Z,73.38
2022-10-30T22:08:36.513Z,73.43
2022-10-30T22:11:05.616Z,73.64
2022-10-30T22:13:33.777Z,73.71
2022-10-30T22:16:01.766Z,73.45
2022-10-30T22:18:31.484Z,73.58
2022-10-30T22:21:03.216Z,73.49
2022-10-30T22:23:31.550Z,73.75
2022-10-30T22:26:01.068Z,73.89
2022-10-30T22:28:29.985Z,73.67
2022-10-30T22:31:02.636Z,73.73
2022-10-30T22:33:32.821Z,73.65
2022-10-30T22:36:05.843Z,73.55
2022-10-30T22:38:33.795Z,73.84
2022-10-30T22:41:09.350Z,73.82
2022-10-30T22:43:37.264Z,73.86
2022-10-30T22:46:05.156Z,73.72
2022-10-30T22:48:34.435Z,73.79
2022-10-30T22:51:05.253Z,73.91
2022-10-30T22:53:34.075Z,74.13
2022-10-30T22:56:12.149Z,74.07
2022-10-30T22:58:39.954Z,73.95
2022-10-30T23:01:10.465Z,74.24
2022-10-30T23:03:40.212Z,73.97
2022-10-30T23:06:08.692Z,74.00
2022-10-30T23:08:37.450Z,74.11
2022-10-30T23:11:06.365Z,74.07
2022-10-30T23:13:36.750Z,74.04
2022-10-30T23:16:07.207Z,74.33
2022-10-30T23:18:36.079Z,74.34
2022-10-30T23:21:08.080Z,74.48
2022-10-30T23:23:37.180Z,74.32
2022-10-30T23:26:07.338Z,74.19
2022-10-30T23:28:35.519Z,73.99
2022-10-30T23:31:04.929Z,74.04
2022-10-30T23:33:32.884Z,74.31
2022-10-30T23:36:01.274Z,74.10
2022-10-30T23:38:30.770Z,74.06
2022-10-30T23:40:58.777Z,74.41
2022-10-30T23:43:26.633Z,74.29
2022-10-30T23:45:54.673Z,74.40
2022-10-30T23:48:22.702Z,74.53
2022-10-30T23:50:50.680Z,74.58
2022-10-30T23:53:18.573Z,74.27
2022-10-30T23:55:53.029Z,73.86
2022-10-30T23:58:21.393Z,74.29
